首页
METAR-TAF:

METAR-TAF

机场 :

亞庇國際機場

亞庇, 马来西亚

纬度: 05-56N, 经度: 116-03E, 海拔: 3米

当前天气观测

该预报发布于15分钟前的19:00 UTC
风速4节,风向东南
温度 27°C
湿度 84%
气压 1010 hPa
能见度10公里或以上
少量云层高于1500英尺
散云层高于14000英尺
多云层高于27000英尺

METAR: WBKK 211900Z 13004KT 9999 FEW015 SCT140 BKN270 27/24 Q1010 NOSIG

时间: 03:15 (19:15 UTC)

预报

该预报发布于2小时和15分钟前的17:00 UTC
预报有效从21日的 18点(UTC)到 22日的 18点(UTC)
风速5节,风向东南
能见度10公里或以上
少量云层高于1500英尺
成为
从 22日的 05点(UTC)到 22日的 07点(UTC)
风速8节,风向西转西南
少量云层高于1700英尺, 积雨云.

TAF: WBKK 211700Z 2118/2218 13005KT 9999 FEW015 BECMG 2205/2207 24008KT FEW017CB

超过4000个机场的气象观测和天气预报(METAR&TAF报告)。

可查询的气象台以黄色和红色小点在地图上表示。

将鼠标移到小点上方,可查看气象台名称。

然后点击查看天气观测和预报。

如需切换地图:点击带黑十字的绿色按钮放大地图;点击带横线的绿色按钮缩小地图;或者点击绿色箭头查看邻近地区的地图。


METAR-TAF: